createdAt,value
2018-07-27T00:01:52.346Z,5.00
2018-07-27T00:04:20.514Z,5.13
2018-07-27T00:06:48.670Z,4.93
2018-07-27T00:09:16.827Z,4.73
2018-07-27T00:11:44.974Z,5.63
2018-07-27T00:14:13.149Z,5.10
2018-07-27T00:16:41.315Z,5.17
2018-07-27T00:19:09.473Z,4.37
2018-07-27T00:21:37.606Z,5.10
2018-07-27T00:24:05.758Z,5.00
2018-07-27T00:26:33.918Z,5.13
2018-07-27T00:29:02.060Z,4.70
2018-07-27T00:31:30.208Z,5.10
2018-07-27T00:33:58.408Z,4.70
2018-07-27T00:36:26.525Z,5.40
2018-07-27T00:38:54.701Z,5.23
2018-07-27T00:41:22.853Z,5.10
2018-07-27T00:43:51.025Z,4.63
2018-07-27T00:46:19.182Z,4.97
2018-07-27T00:48:47.358Z,4.70
2018-07-27T00:51:15.519Z,4.80
2018-07-27T00:53:43.673Z,5.20
2018-07-27T00:56:11.828Z,4.70
2018-07-27T00:58:39.990Z,4.50
2018-07-27T01:01:08.157Z,5.03
2018-07-27T01:03:36.301Z,5.63
2018-07-27T01:06:04.477Z,5.40
2018-07-27T01:08:32.641Z,5.77
2018-07-27T01:11:00.814Z,5.20
2018-07-27T01:13:28.964Z,5.33
2018-07-27T01:15:57.108Z,5.50
2018-07-27T01:18:25.492Z,5.43
2018-07-27T01:20:53.649Z,5.03
2018-07-27T01:23:21.797Z,5.57
2018-07-27T01:25:49.983Z,5.57
2018-07-27T01:28:18.141Z,5.63
2018-07-27T01:30:46.337Z,5.20
2018-07-27T01:33:14.534Z,4.93
2018-07-27T01:35:42.709Z,5.83
2018-07-27T01:38:10.889Z,5.27
2018-07-27T01:40:39.086Z,5.50
2018-07-27T01:43:07.262Z,5.93
2018-07-27T01:45:35.416Z,5.30
2018-07-27T01:48:03.582Z,5.83
2018-07-27T01:50:31.768Z,5.27
2018-07-27T01:52:59.997Z,5.70
2018-07-27T01:55:28.159Z,5.83
2018-07-27T01:57:56.309Z,5.60
2018-07-27T02:00:24.511Z,6.00
2018-07-27T02:02:52.666Z,5.30
2018-07-27T02:05:20.801Z,5.50
2018-07-27T02:07:48.958Z,5.60
2018-07-27T02:10:17.106Z,5.23
2018-07-27T02:12:45.278Z,6.03
2018-07-27T02:15:13.434Z,5.13
2018-07-27T02:17:41.569Z,5.83
2018-07-27T02:20:09.742Z,5.63
2018-07-27T02:22:37.893Z,5.70
2018-07-27T02:25:06.252Z,6.10
2018-07-27T02:27:34.394Z,6.17
2018-07-27T02:30:02.534Z,6.13
2018-07-27T02:32:30.689Z,5.47
2018-07-27T02:34:58.839Z,5.63
2018-07-27T02:37:26.985Z,6.10
2018-07-27T02:39:55.141Z,5.87
2018-07-27T02:42:23.282Z,5.30
2018-07-27T02:44:51.421Z,5.33
2018-07-27T02:47:19.558Z,5.80
2018-07-27T02:49:47.701Z,5.57
2018-07-27T02:52:15.866Z,5.50
2018-07-27T02:54:44.007Z,5.33
2018-07-27T02:57:12.150Z,5.70
2018-07-27T02:59:40.286Z,5.07
2018-07-27T03:02:08.469Z,5.23
2018-07-27T03:04:36.642Z,5.50
2018-07-27T03:07:04.790Z,5.30
2018-07-27T03:09:32.982Z,5.30
2018-07-27T03:12:01.153Z,5.77
2018-07-27T03:14:29.301Z,5.80
2018-07-27T03:16:57.495Z,5.80
2018-07-27T03:19:25.931Z,5.93
2018-07-27T03:21:54.081Z,5.80
2018-07-27T03:24:22.490Z,5.87
2018-07-27T03:26:50.661Z,5.67
2018-07-27T03:29:18.576Z,5.63
2018-07-27T03:31:46.762Z,5.37
2018-07-27T03:34:14.916Z,5.37
2018-07-27T03:36:43.069Z,5.57
2018-07-27T03:39:11.937Z,5.57
2018-07-27T03:41:40.081Z,5.10
2018-07-27T03:44:08.249Z,6.07
2018-07-27T03:46:36.425Z,5.87
2018-07-27T03:49:04.573Z,5.90
2018-07-27T03:51:32.701Z,6.17
2018-07-27T03:54:00.863Z,6.67
2018-07-27T03:56:28.997Z,6.60
2018-07-27T03:58:57.134Z,6.80
2018-07-27T04:01:25.301Z,6.27
2018-07-27T04:03:53.526Z,6.20
2018-07-27T04:06:21.673Z,6.27
2018-07-27T04:08:49.822Z,6.77
2018-07-27T04:11:17.974Z,6.97
2018-07-27T04:13:46.137Z,6.20
2018-07-27T04:16:14.313Z,5.80
2018-07-27T04:18:42.493Z,7.50
2018-07-27T04:21:10.661Z,6.53
2018-07-27T04:23:38.837Z,6.10
2018-07-27T04:26:07.049Z,6.77
2018-07-27T04:28:35.201Z,6.10
2018-07-27T04:31:03.361Z,7.47
2018-07-27T04:33:31.514Z,6.83
2018-07-27T04:35:59.684Z,6.77
2018-07-27T04:38:27.822Z,6.30
2018-07-27T04:40:55.995Z,5.83
2018-07-27T04:43:24.154Z,6.57
2018-07-27T04:45:52.313Z,6.40
2018-07-27T04:48:20.466Z,6.50
2018-07-27T04:50:48.626Z,5.57
2018-07-27T04:53:16.766Z,5.90
2018-07-27T04:55:44.926Z,6.10
2018-07-27T04:58:13.081Z,6.17
2018-07-27T05:00:41.226Z,6.03
2018-07-27T05:03:09.380Z,6.27
2018-07-27T05:05:37.529Z,6.50
2018-07-27T05:08:05.438Z,5.67
2018-07-27T05:10:38.910Z,5.93
2018-07-27T05:13:07.533Z,5.50
2018-07-27T05:15:35.685Z,5.73
2018-07-27T05:18:03.842Z,6.10
2018-07-27T05:20:32.191Z,5.53
2018-07-27T05:23:00.353Z,6.40
2018-07-27T05:25:28.497Z,5.60
2018-07-27T05:27:56.667Z,6.27
2018-07-27T05:30:24.811Z,6.47
2018-07-27T05:32:52.965Z,6.50
2018-07-27T05:35:21.117Z,6.87
2018-07-27T05:37:49.297Z,6.10
2018-07-27T05:40:17.449Z,7.43
2018-07-27T05:42:45.598Z,6.43
2018-07-27T05:45:13.745Z,6.50
2018-07-27T05:47:41.905Z,6.57
2018-07-27T05:50:10.066Z,5.87
2018-07-27T05:52:38.290Z,6.23
2018-07-27T05:55:07.445Z,6.43
2018-07-27T05:57:35.609Z,5.87
2018-07-27T06:00:04.842Z,6.90
2018-07-27T06:02:33.037Z,5.87
2018-07-27T06:05:01.187Z,6.47
2018-07-27T06:07:29.368Z,6.20
2018-07-27T06:09:57.510Z,6.10
2018-07-27T06:12:25.688Z,6.13
2018-07-27T06:14:54.174Z,6.07
2018-07-27T06:17:22.312Z,6.10
2018-07-27T06:19:50.457Z,6.27
2018-07-27T06:22:18.609Z,5.50
2018-07-27T06:24:51.289Z,6.27
2018-07-27T06:27:19.967Z,6.47
2018-07-27T06:29:48.555Z,6.90
2018-07-27T06:32:17.338Z,5.70
2018-07-27T06:34:45.918Z,6.90
2018-07-27T06:37:14.501Z,5.80
2018-07-27T06:39:44.133Z,6.17
2018-07-27T06:42:12.375Z,6.03
2018-07-27T06:44:40.530Z,6.80
2018-07-27T06:47:08.671Z,5.70
2018-07-27T06:49:36.811Z,5.30
2018-07-27T06:52:04.949Z,5.93
2018-07-27T06:54:33.090Z,5.97
2018-07-27T06:57:01.238Z,5.80
2018-07-27T06:59:29.381Z,6.33
2018-07-27T07:01:57.545Z,5.90
2018-07-27T07:04:25.681Z,5.30
2018-07-27T07:06:53.830Z,5.97
2018-07-27T07:09:21.965Z,5.67
2018-07-27T07:11:50.101Z,5.30
2018-07-27T07:14:18.241Z,6.37
2018-07-27T07:16:46.426Z,5.83
2018-07-27T07:19:14.560Z,5.60
2018-07-27T07:21:42.701Z,5.10
2018-07-27T07:24:10.869Z,5.40
2018-07-27T07:26:38.997Z,5.93
2018-07-27T07:29:07.151Z,6.33
2018-07-27T07:31:35.365Z,5.90
2018-07-27T07:34:03.505Z,5.60
2018-07-27T07:36:31.697Z,5.60
2018-07-27T07:38:59.887Z,6.27
2018-07-27T07:41:28.057Z,5.43
2018-07-27T07:43:56.214Z,5.30
2018-07-27T07:46:24.374Z,6.37
2018-07-27T07:48:52.507Z,5.27
2018-07-27T07:51:20.642Z,6.60
2018-07-27T07:53:48.796Z,6.00
2018-07-27T07:56:16.938Z,5.93
2018-07-27T07:58:45.107Z,6.10
2018-07-27T08:01:13.285Z,6.60
2018-07-27T08:03:41.455Z,6.63
2018-07-27T08:06:09.602Z,6.23
2018-07-27T08:08:37.774Z,7.87
2018-07-27T08:11:05.960Z,6.23
2018-07-27T08:13:34.103Z,5.83
2018-07-27T08:16:02.242Z,6.03
2018-07-27T08:18:30.408Z,5.50
2018-07-27T08:20:58.581Z,5.87
2018-07-27T08:23:26.741Z,5.60
2018-07-27T08:27:00.103Z,5.23
2018-07-27T08:29:29.528Z,4.90
2018-07-27T08:31:58.119Z,5.33
2018-07-27T08:34:26.282Z,4.33
2018-07-27T08:36:54.442Z,4.93
2018-07-27T08:39:23.959Z,4.87
2018-07-27T08:41:52.207Z,5.03
2018-07-27T08:44:22.542Z,4.87
2018-07-27T08:46:50.694Z,4.67
2018-07-27T08:49:18.901Z,4.50
2018-07-27T08:51:47.090Z,5.00
2018-07-27T08:54:15.254Z,5.00
2018-07-27T08:56:43.410Z,4.53
2018-07-27T08:59:11.563Z,4.57
2018-07-27T09:01:39.721Z,3.93
2018-07-27T09:04:07.895Z,4.80
2018-07-27T09:06:36.056Z,4.70
2018-07-27T09:09:08.237Z,4.80
2018-07-27T09:11:36.431Z,4.77
2018-07-27T09:14:04.642Z,4.53
2018-07-27T09:16:32.841Z,4.57
2018-07-27T09:19:00.989Z,4.30
2018-07-27T09:21:29.161Z,4.90
2018-07-27T09:23:57.323Z,4.60
2018-07-27T09:26:25.485Z,4.50
2018-07-27T09:28:53.642Z,4.23
2018-07-27T09:31:21.850Z,4.33
2018-07-27T09:33:50.024Z,4.20
2018-07-27T09:36:18.169Z,5.00
2018-07-27T09:38:46.377Z,4.63
2018-07-27T09:41:14.530Z,4.83
2018-07-27T09:43:42.677Z,4.47
2018-07-27T09:46:10.830Z,4.27
2018-07-27T09:48:38.997Z,4.73
2018-07-27T09:51:07.147Z,4.70
2018-07-27T09:53:35.311Z,4.20
2018-07-27T09:56:03.450Z,4.57
2018-07-27T09:58:31.629Z,4.40
2018-07-27T10:01:05.301Z,4.57
2018-07-27T10:03:33.445Z,4.60
2018-07-27T10:06:01.598Z,4.83
2018-07-27T10:08:29.741Z,4.40
2018-07-27T10:10:57.918Z,4.57
2018-07-27T10:13:26.066Z,4.83
2018-07-27T10:15:54.241Z,4.90
2018-07-27T10:18:22.426Z,4.37
2018-07-27T10:20:50.563Z,5.17
2018-07-27T10:23:18.702Z,4.80
2018-07-27T10:25:46.853Z,5.00
2018-07-27T10:28:15.156Z,4.60
2018-07-27T10:30:43.331Z,5.00
2018-07-27T10:33:11.482Z,4.60
2018-07-27T10:35:39.647Z,4.83
2018-07-27T10:38:07.805Z,4.93
2018-07-27T10:40:35.958Z,5.00
2018-07-27T10:43:04.141Z,4.87
2018-07-27T10:45:32.305Z,4.87
2018-07-27T10:48:00.470Z,5.13
2018-07-27T10:50:28.626Z,4.70
2018-07-27T10:52:56.779Z,5.17
2018-07-27T10:55:24.956Z,5.50
2018-07-27T10:57:53.119Z,5.17
2018-07-27T11:00:21.305Z,5.07
2018-07-27T11:02:49.462Z,5.60
2018-07-27T11:05:17.642Z,5.37
2018-07-27T11:07:45.799Z,6.57
2018-07-27T11:10:13.949Z,5.00
2018-07-27T11:12:42.094Z,5.23
2018-07-27T11:15:10.803Z,5.47
2018-07-27T11:17:39.506Z,5.20
2018-07-27T11:20:08.465Z,5.87
2018-07-27T11:22:36.625Z,5.63
2018-07-27T11:25:05.178Z,5.07
2018-07-27T11:27:33.353Z,5.37
2018-07-27T11:30:01.547Z,5.60
2018-07-27T11:32:29.714Z,5.70
2018-07-27T11:34:57.871Z,5.53
2018-07-27T11:37:26.115Z,5.10
2018-07-27T11:39:54.465Z,5.53
2018-07-27T11:42:22.646Z,5.27
2018-07-27T11:44:50.775Z,5.23
2018-07-27T11:47:18.930Z,5.50
2018-07-27T11:49:47.082Z,5.37
2018-07-27T11:52:15.278Z,5.37
2018-07-27T11:54:43.425Z,5.10
2018-07-27T11:57:11.584Z,5.53
2018-07-27T11:59:39.734Z,5.60
2018-07-27T12:02:07.894Z,5.80
2018-07-27T12:04:36.073Z,5.17
2018-07-27T12:07:04.335Z,5.27
2018-07-27T12:09:32.406Z,5.57
2018-07-27T12:12:00.573Z,5.40
2018-07-27T12:14:28.919Z,5.80
2018-07-27T12:16:56.870Z,5.13
2018-07-27T12:19:25.013Z,5.50
2018-07-27T12:21:53.187Z,5.53
2018-07-27T12:24:21.335Z,5.77
2018-07-27T12:26:49.507Z,5.37
2018-07-27T12:29:17.657Z,5.50
2018-07-27T12:31:45.794Z,5.83
2018-07-27T12:34:14.030Z,5.50
2018-07-27T12:36:42.172Z,5.37
2018-07-27T12:39:11.466Z,5.20
2018-07-27T12:41:40.703Z,5.80
2018-07-27T12:44:08.854Z,5.90
2018-07-27T12:46:37.529Z,5.70
2018-07-27T12:49:05.952Z,5.83
2018-07-27T12:51:34.165Z,6.17
2018-07-27T12:54:02.335Z,5.60
2018-07-27T12:56:30.609Z,5.43
2018-07-27T12:58:58.824Z,5.90
2018-07-27T13:01:26.934Z,5.70
2018-07-27T13:03:55.114Z,5.40
2018-07-27T13:06:23.275Z,5.50
2018-07-27T13:08:51.438Z,5.50
2018-07-27T13:11:19.582Z,5.70
2018-07-27T13:13:47.734Z,6.10
2018-07-27T13:16:15.897Z,5.27
2018-07-27T13:18:44.094Z,5.70
2018-07-27T13:21:12.257Z,5.33
2018-07-27T13:23:50.620Z,4.87
2018-07-27T13:26:25.726Z,5.77
2018-07-27T13:28:46.921Z,5.80
2018-07-27T13:31:15.086Z,5.50
2018-07-27T13:33:55.492Z,5.60
2018-07-27T13:36:23.637Z,5.33
2018-07-27T13:38:51.798Z,5.80
2018-07-27T13:41:19.962Z,5.57
2018-07-27T13:43:48.140Z,6.17
2018-07-27T13:46:16.285Z,5.17
2018-07-27T13:48:44.442Z,5.23
2018-07-27T13:51:12.586Z,5.57
2018-07-27T13:53:40.753Z,5.43
2018-07-27T13:56:08.916Z,5.60
2018-07-27T13:58:37.095Z,5.20
2018-07-27T14:01:05.257Z,5.27
2018-07-27T14:03:33.405Z,5.37
2018-07-27T14:06:01.537Z,5.33
2018-07-27T14:08:29.705Z,5.57
2018-07-27T14:10:57.900Z,5.33
2018-07-27T14:13:26.107Z,6.03
2018-07-27T14:15:54.262Z,5.53
2018-07-27T14:18:22.423Z,5.53
2018-07-27T14:20:50.578Z,5.37
2018-07-27T14:23:18.734Z,5.33
2018-07-27T14:25:46.886Z,5.23
2018-07-27T14:28:15.050Z,4.87
2018-07-27T14:30:43.199Z,5.07
2018-07-27T14:33:11.374Z,4.90
2018-07-27T14:35:39.547Z,5.63
2018-07-27T14:38:07.706Z,5.00
2018-07-27T14:40:35.903Z,5.40
2018-07-27T14:43:04.122Z,5.13
2018-07-27T14:45:32.270Z,5.60
2018-07-27T14:48:00.436Z,5.53
2018-07-27T14:50:28.600Z,5.00
2018-07-27T14:52:56.790Z,5.00
2018-07-27T14:55:24.995Z,5.57
2018-07-27T14:57:53.243Z,6.03
2018-07-27T15:00:21.438Z,5.43
2018-07-27T15:02:49.598Z,6.27
2018-07-27T15:05:17.764Z,6.03
2018-07-27T15:07:45.926Z,5.70
2018-07-27T15:10:14.082Z,6.23
2018-07-27T15:12:42.234Z,6.00
2018-07-27T15:15:10.414Z,5.77
2018-07-27T15:17:38.550Z,6.23
2018-07-27T15:20:06.714Z,6.10
2018-07-27T15:22:34.850Z,5.93
2018-07-27T15:25:03.026Z,6.13
2018-07-27T15:27:32.017Z,6.23
2018-07-27T15:30:00.194Z,5.77
2018-07-27T15:32:28.331Z,5.87
2018-07-27T15:34:56.596Z,5.87
2018-07-27T15:37:24.726Z,5.63
2018-07-27T15:39:52.898Z,6.00
2018-07-27T15:42:21.063Z,6.13
2018-07-27T15:44:49.238Z,6.30
2018-07-27T15:47:17.381Z,6.07
2018-07-27T15:49:45.558Z,5.77
2018-07-27T15:52:13.693Z,6.03
2018-07-27T15:54:41.886Z,6.57
2018-07-27T15:57:10.082Z,5.87
2018-07-27T15:59:38.275Z,5.57
2018-07-27T16:02:06.530Z,6.20
2018-07-27T16:04:34.672Z,5.60
2018-07-27T16:07:02.848Z,6.27
2018-07-27T16:09:30.990Z,6.13
2018-07-27T16:11:59.259Z,5.60
2018-07-27T16:14:27.398Z,6.10
2018-07-27T16:16:55.882Z,6.03
2018-07-27T16:19:24.964Z,6.10
2018-07-27T16:21:53.162Z,5.77
2018-07-27T16:24:21.268Z,6.00
2018-07-27T16:26:49.413Z,5.77
2018-07-27T16:29:17.595Z,6.10
2018-07-27T16:31:45.799Z,5.70
2018-07-27T16:34:13.945Z,5.70
2018-07-27T16:36:42.106Z,6.63
2018-07-27T16:39:10.974Z,6.30
2018-07-27T16:41:39.134Z,5.80
2018-07-27T16:44:07.269Z,6.53
2018-07-27T16:46:35.452Z,6.10
2018-07-27T16:49:03.547Z,6.17
2018-07-27T16:51:32.969Z,6.60
2018-07-27T16:54:01.386Z,6.63
2018-07-27T16:56:29.550Z,7.53
2018-07-27T16:58:57.733Z,6.90
2018-07-27T17:01:25.865Z,6.10
2018-07-27T17:03:54.045Z,7.13
2018-07-27T17:06:22.256Z,16.27
2018-07-27T17:08:50.341Z,6.23
2018-07-27T17:11:18.489Z,5.97
2018-07-27T17:13:46.630Z,6.13
2018-07-27T17:16:14.813Z,6.50
2018-07-27T17:18:42.937Z,6.20
2018-07-27T17:21:11.086Z,5.70
2018-07-27T17:23:39.270Z,5.60
2018-07-27T17:26:07.414Z,5.77
2018-07-27T17:28:35.613Z,6.00
2018-07-27T17:31:03.849Z,6.10
2018-07-27T17:33:32.028Z,6.13
2018-07-27T17:36:00.159Z,5.77
2018-07-27T17:38:28.302Z,6.30
2018-07-27T17:40:56.457Z,6.10
2018-07-27T17:43:24.626Z,5.87
2018-07-27T17:45:52.782Z,5.83
2018-07-27T17:48:20.986Z,6.10
2018-07-27T17:50:49.126Z,6.37
2018-07-27T17:53:17.277Z,6.30
2018-07-27T17:55:45.430Z,6.53
2018-07-27T17:58:13.577Z,6.17
2018-07-27T18:00:41.739Z,6.03
2018-07-27T18:03:09.897Z,6.70
2018-07-27T18:05:38.066Z,6.13
2018-07-27T18:08:06.308Z,6.17
2018-07-27T18:10:34.398Z,5.70
2018-07-27T18:13:02.632Z,6.43
2018-07-27T18:15:30.733Z,5.93
2018-07-27T18:17:58.906Z,6.07
2018-07-27T18:20:27.053Z,5.60
2018-07-27T18:22:55.246Z,6.50
2018-07-27T18:25:23.471Z,6.37
2018-07-27T18:27:51.593Z,6.47
2018-07-27T18:30:19.785Z,5.90
2018-07-27T18:32:47.938Z,5.83
2018-07-27T18:35:16.095Z,6.13
2018-07-27T18:37:44.257Z,5.83
2018-07-27T18:40:12.414Z,6.30
2018-07-27T18:42:40.565Z,6.20
2018-07-27T18:45:09.602Z,5.93
2018-07-27T18:47:37.830Z,6.10
2018-07-27T18:50:06.574Z,6.97
2018-07-27T18:52:34.745Z,5.70
2018-07-27T18:55:02.962Z,6.40
2018-07-27T18:57:31.063Z,5.90
2018-07-27T18:59:59.253Z,5.80
2018-07-27T19:02:28.606Z,5.77
2018-07-27T19:05:00.468Z,5.77
2018-07-27T19:07:30.324Z,6.63
2018-07-27T19:10:00.026Z,5.77
2018-07-27T19:12:28.936Z,6.10
2018-07-27T19:14:58.456Z,6.13
2018-07-27T19:17:29.189Z,6.07
2018-07-27T19:19:57.373Z,6.10
2018-07-27T19:22:26.210Z,6.30
2018-07-27T19:24:54.857Z,6.40
2018-07-27T19:27:23.992Z,6.30
2018-07-27T19:29:56.616Z,7.50
2018-07-27T19:32:26.024Z,6.83
2018-07-27T19:34:55.152Z,6.43
2018-07-27T19:37:24.413Z,7.13
2018-07-27T19:40:00.037Z,7.30
2018-07-27T19:42:28.533Z,7.13
2018-07-27T19:44:57.783Z,7.00
2018-07-27T19:47:29.816Z,7.33
2018-07-27T19:49:58.476Z,6.60
2018-07-27T19:52:30.935Z,6.60
2018-07-27T19:55:01.495Z,6.83
2018-07-27T19:57:30.735Z,6.40
2018-07-27T19:59:58.907Z,6.23
2018-07-27T20:02:27.452Z,6.87
2018-07-27T20:04:56.704Z,7.17
2018-07-27T20:07:31.360Z,6.50
2018-07-27T20:10:01.034Z,7.03
2018-07-27T20:12:32.146Z,6.03
2018-07-27T20:15:00.270Z,6.97
2018-07-27T20:17:28.950Z,7.40
2018-07-27T20:19:57.561Z,6.27
2018-07-27T20:22:26.089Z,7.27
2018-07-27T20:24:55.139Z,6.60
2018-07-27T20:27:24.644Z,6.50
2018-07-27T20:29:53.866Z,6.23
2018-07-27T20:32:22.885Z,5.70
2018-07-27T20:34:51.577Z,5.50
2018-07-27T20:37:20.144Z,5.67
2018-07-27T20:39:49.509Z,6.50
2018-07-27T20:42:18.543Z,6.30
2018-07-27T20:44:46.910Z,6.73
2018-07-27T20:47:16.007Z,7.27
2018-07-27T20:49:47.080Z,7.50
2018-07-27T20:52:15.846Z,8.50
2018-07-27T20:54:45.045Z,8.60
2018-07-27T20:57:17.279Z,9.37
2018-07-27T20:59:45.613Z,8.97
2018-07-27T21:02:14.170Z,8.50
2018-07-27T21:04:42.997Z,9.80
2018-07-27T21:07:11.163Z,24.93
2018-07-27T21:09:39.326Z,18.70
2018-07-27T21:12:07.498Z,11.30
2018-07-27T21:14:35.650Z,8.67
2018-07-27T21:17:03.796Z,8.93
2018-07-27T21:19:31.715Z,9.67
2018-07-27T21:22:00.006Z,9.63
2018-07-27T21:24:28.039Z,9.13
2018-07-27T21:26:56.181Z,9.40
2018-07-27T21:29:24.345Z,8.97
2018-07-27T21:31:52.485Z,9.27
2018-07-27T21:34:22.101Z,8.47
2018-07-27T21:36:50.246Z,8.80
2018-07-27T21:39:18.404Z,8.13
2018-07-27T21:41:46.572Z,9.07
2018-07-27T21:44:15.192Z,8.90
2018-07-27T21:46:48.305Z,9.50
2018-07-27T21:49:16.454Z,8.97
2018-07-27T21:51:46.496Z,9.00
2018-07-27T21:54:14.342Z,8.83
2018-07-27T21:56:45.823Z,8.67
2018-07-27T21:59:18.052Z,9.07
2018-07-27T22:01:47.180Z,9.30
2018-07-27T22:04:15.932Z,9.23
2018-07-27T22:06:44.713Z,7.97
2018-07-27T22:09:13.782Z,9.10
2018-07-27T22:11:43.081Z,9.70
2018-07-27T22:14:12.532Z,9.27
2018-07-27T22:16:41.225Z,9.87
2018-07-27T22:19:11.250Z,10.10
2018-07-27T22:21:39.841Z,11.60
2018-07-27T22:24:09.659Z,26.23
2018-07-27T22:26:40.406Z,31.23
2018-07-27T22:29:10.887Z,18.93
2018-07-27T22:31:39.549Z,14.43
2018-07-27T22:34:08.267Z,9.27
2018-07-27T22:36:36.735Z,9.70
2018-07-27T22:39:07.972Z,9.23
2018-07-27T22:41:36.975Z,9.33
2018-07-27T22:44:07.129Z,11.27
2018-07-27T22:46:35.826Z,9.80
2018-07-27T22:49:04.721Z,10.20
2018-07-27T22:51:33.424Z,10.23
2018-07-27T22:54:03.048Z,9.97
2018-07-27T22:56:32.327Z,10.97
2018-07-27T22:59:01.058Z,10.57
2018-07-27T23:01:30.362Z,13.90
2018-07-27T23:03:58.590Z,12.00
2018-07-27T23:06:26.769Z,13.33
2018-07-27T23:08:54.730Z,10.60
2018-07-27T23:11:22.880Z,11.10
2018-07-27T23:13:51.029Z,12.00
2018-07-27T23:16:19.221Z,15.73
2018-07-27T23:18:47.373Z,17.70
2018-07-27T23:21:15.523Z,19.13
2018-07-27T23:23:43.676Z,14.00
2018-07-27T23:26:11.817Z,11.67
2018-07-27T23:28:40.014Z,10.80
2018-07-27T23:31:08.157Z,9.97
2018-07-27T23:33:36.323Z,10.13
2018-07-27T23:36:04.510Z,10.63
2018-07-27T23:38:32.677Z,10.13
2018-07-27T23:41:00.834Z,10.30
2018-07-27T23:43:29.025Z,10.83
2018-07-27T23:45:57.205Z,9.60
2018-07-27T23:48:25.371Z,10.00
2018-07-27T23:50:53.518Z,9.83
2018-07-27T23:53:21.661Z,10.23
2018-07-27T23:55:49.901Z,10.30
2018-07-27T23:58:18.032Z,10.30
